Strona główna
METAR-TAF:

METAR-TAF

Lotnisko :

Port lotniczy Belfast-City George Best

Belfast, Irlandia Północna

Szerokość geograficzna: 54-36N, Długość geograficzna: 005-53W, wysokość: 5 m

Aktualna obserwacja pogody

Raport powstał 32 minut temu, godzina 15:20 UTC
Wiatr 17 kt od północno-północny wschód
Temperatura 9°C
Wilgotność 57%
Ciśnienie 1039 hPa
Widzialność 10 km lub więcej

METAR: EGAC 281520Z AUTO 03017KT 9999 NCD 09/01 Q1039

czas: 15:52 (15:52 UTC)

Prognoza

Raport powstał 1 godzina i 57 minut temu, godzina 13:55 UTC
Prognoza ważna od 28 godzina 15 UTC do 28 godzina 22 UTC
Wiatr 15 kt od północny wschód
Widzialność 10 km lub więcej
Rozproszone chmury na wysokości 3000 ft
Prawdopodobieństwo 30% :
Przejściowo
od 28 godzina 15 UTC do 28 godzina 22 UTC
Wiatr 18 kt od północny wschód w porywach dochodzący do 28 kt

TAF: EGAC 281355Z 2815/2822 04015KT 9999 SCT030 PROB30 TEMPO 2815/2822 04018G28KT

Obserwacja i prognoza pogody dla ponad 4000 lotnisk (raport METAR i TAF).

Dostępne stacje oznaczono żółtymi i czerwonymi punktami na mapie.

Najedź kursorem aby zobaczyć nazwę stacji.

Kliknij aby zobaczyć obserwacje i prognozy pogody.

Aby zmienić mapę: kliknij na zielony przycisk z czarnym krzyżykiem, aby powiększyć; na zielony przycisk z myślnikiem, aby pomniejszyć; na zielone strzałki, aby przejść do map sąsiednich.


METAR-TAF: